createdAt,value
2022-12-18T00:01:38.808Z,65.05
2022-12-18T00:04:09.214Z,66.68
2022-12-18T00:06:37.040Z,64.88
2022-12-18T00:09:04.644Z,64.68
2022-12-18T00:11:33.083Z,63.93
2022-12-18T00:14:00.996Z,63.50
2022-12-18T00:16:31.008Z,64.30
2022-12-18T00:19:00.668Z,65.59
2022-12-18T00:21:29.723Z,66.21
2022-12-18T00:23:58.052Z,66.58
2022-12-18T00:26:28.051Z,65.89
2022-12-18T00:29:00.116Z,63.21
2022-12-18T00:31:28.208Z,63.47
2022-12-18T00:33:57.128Z,66.30
2022-12-18T00:36:27.298Z,68.63
2022-12-18T00:38:56.827Z,66.21
2022-12-18T00:41:43.856Z,64.88
2022-12-18T00:44:14.606Z,64.98
2022-12-18T00:46:43.495Z,64.78
2022-12-18T00:49:15.734Z,63.26
2022-12-18T00:51:43.526Z,62.27
2022-12-18T00:54:12.795Z,63.57
2022-12-18T00:56:48.273Z,63.90
2022-12-18T00:59:17.978Z,62.91
2022-12-18T01:01:46.488Z,64.18
2022-12-18T01:04:14.937Z,64.00
2022-12-18T01:06:46.348Z,65.21
2022-12-18T01:09:14.145Z,68.26
2022-12-18T01:11:41.901Z,67.52
2022-12-18T01:14:11.024Z,66.25
2022-12-18T01:16:38.735Z,64.77
2022-12-18T01:19:06.528Z,65.97
2022-12-18T01:21:35.090Z,66.35
2022-12-18T01:24:05.299Z,65.63
2022-12-18T01:26:33.096Z,65.59
2022-12-18T01:29:00.985Z,65.28
2022-12-18T01:31:34.180Z,65.40
2022-12-18T01:34:04.927Z,66.13
2022-12-18T01:36:35.661Z,66.40
2022-12-18T01:39:07.342Z,66.23
2022-12-18T01:41:54.330Z,65.94
2022-12-18T01:44:59.416Z,65.87
2022-12-18T01:47:35.552Z,66.35
2022-12-18T01:50:20.791Z,67.00
2022-12-18T01:52:52.599Z,66.95
2022-12-18T01:55:23.312Z,66.64
2022-12-18T01:57:55.205Z,68.30
2022-12-18T02:00:24.708Z,67.72
2022-12-18T02:02:54.041Z,67.61
2022-12-18T02:05:30.488Z,67.52
2022-12-18T02:08:31.242Z,68.04
2022-12-18T02:11:11.307Z,67.92
2022-12-18T02:13:46.876Z,67.41
2022-12-18T02:16:30.535Z,67.34
2022-12-18T02:19:03.090Z,67.59
2022-12-18T02:21:42.883Z,67.75
2022-12-18T02:24:35.395Z,68.02
2022-12-18T02:27:07.631Z,67.58
2022-12-18T02:29:41.520Z,68.26
2022-12-18T02:32:17.857Z,67.97
2022-12-18T02:34:47.292Z,68.26
2022-12-18T02:37:19.115Z,68.00
2022-12-18T02:39:50.091Z,68.44
2022-12-18T02:42:19.091Z,68.35
2022-12-18T02:44:50.290Z,67.59
2022-12-18T02:47:22.925Z,67.55
2022-12-18T02:50:14.628Z,68.25
2022-12-18T02:52:47.087Z,67.83
2022-12-18T02:56:06.002Z,68.04
2022-12-18T02:58:52.820Z,67.56
2022-12-18T03:01:28.286Z,67.92
2022-12-18T03:04:30.875Z,67.65
2022-12-18T03:07:03.857Z,68.17
2022-12-18T03:09:42.185Z,67.80
2022-12-18T03:12:36.359Z,68.04
2022-12-18T03:15:17.221Z,67.85
2022-12-18T03:17:56.160Z,68.43
2022-12-18T03:20:31.328Z,68.00
2022-12-18T03:23:03.505Z,68.08
2022-12-18T03:25:32.264Z,67.94
2022-12-18T03:28:03.198Z,68.28
2022-12-18T03:30:34.552Z,68.31
2022-12-18T03:33:14.378Z,67.56
2022-12-18T03:35:43.982Z,67.91
2022-12-18T03:38:12.822Z,67.48
2022-12-18T03:41:18.145Z,67.26
2022-12-18T03:43:52.128Z,67.01
2022-12-18T03:46:40.049Z,66.70
2022-12-18T03:49:14.911Z,66.60
2022-12-18T03:51:42.774Z,66.37
2022-12-18T03:54:12.500Z,66.50
2022-12-18T03:56:45.297Z,67.03
2022-12-18T03:59:17.077Z,67.75
2022-12-18T04:01:48.857Z,68.61
2022-12-18T04:04:19.989Z,68.48
2022-12-18T04:06:49.497Z,68.86
2022-12-18T04:09:19.343Z,69.03
2022-12-18T04:11:48.149Z,68.14
2022-12-18T04:14:18.212Z,67.45
2022-12-18T04:16:47.180Z,67.05
2022-12-18T04:19:15.412Z,67.01
2022-12-18T04:21:43.721Z,67.03
2022-12-18T04:24:11.872Z,68.72
2022-12-18T04:26:40.314Z,69.66
2022-12-18T04:29:10.250Z,68.41
2022-12-18T04:31:38.357Z,67.58
2022-12-18T04:34:06.146Z,67.52
2022-12-18T04:36:35.254Z,66.83
2022-12-18T04:39:03.672Z,68.11
2022-12-18T04:41:31.561Z,69.43
2022-12-18T04:43:59.368Z,69.78
2022-12-18T04:46:27.295Z,69.64
2022-12-18T04:48:54.875Z,68.47
2022-12-18T04:51:26.464Z,68.04
2022-12-18T04:53:55.229Z,69.65
2022-12-18T04:56:23.260Z,69.01
2022-12-18T04:58:50.915Z,68.28
2022-12-18T05:01:19.733Z,67.91
2022-12-18T05:03:47.570Z,68.27
2022-12-18T05:06:15.361Z,68.67
2022-12-18T05:08:43.272Z,67.37
2022-12-18T05:11:15.072Z,67.10
2022-12-18T05:13:44.652Z,67.28
2022-12-18T05:16:13.865Z,68.71
2022-12-18T05:18:41.769Z,69.61
2022-12-18T05:21:09.803Z,70.29
2022-12-18T05:23:38.135Z,72.52
2022-12-18T05:26:07.425Z,69.57
2022-12-18T05:28:36.844Z,68.03
2022-12-18T05:31:05.390Z,67.51
2022-12-18T05:33:35.576Z,68.19
2022-12-18T05:36:06.561Z,68.04
2022-12-18T05:38:36.007Z,68.08
2022-12-18T05:41:06.087Z,68.98
2022-12-18T05:43:35.812Z,70.14
2022-12-18T05:46:14.035Z,68.65
2022-12-18T05:48:43.160Z,69.19
2022-12-18T05:51:16.182Z,69.69
2022-12-18T05:53:44.415Z,69.01
2022-12-18T05:56:15.834Z,69.06
2022-12-18T05:58:43.472Z,69.06
2022-12-18T06:01:18.408Z,68.83
2022-12-18T06:03:47.166Z,69.21
2022-12-18T06:06:15.820Z,69.99
2022-12-18T06:08:46.384Z,71.02
2022-12-18T06:11:19.258Z,72.42
2022-12-18T06:13:47.696Z,72.56
2022-12-18T06:16:15.690Z,71.22
2022-12-18T06:18:43.357Z,71.60
2022-12-18T06:21:11.024Z,70.95
2022-12-18T06:23:39.466Z,70.96
2022-12-18T06:26:10.751Z,71.19
2022-12-18T06:28:38.438Z,72.52
2022-12-18T06:31:07.202Z,71.88
2022-12-18T06:33:35.493Z,71.99
2022-12-18T06:36:14.009Z,71.42
2022-12-18T06:38:44.306Z,71.20
2022-12-18T06:41:14.644Z,71.69
2022-12-18T06:43:43.343Z,71.29
2022-12-18T06:46:11.970Z,70.63
2022-12-18T06:48:40.310Z,70.45
2022-12-18T06:51:08.248Z,72.46
2022-12-18T06:53:35.841Z,72.82
2022-12-18T06:56:09.835Z,70.88
2022-12-18T06:58:39.977Z,71.45
2022-12-18T07:01:10.187Z,71.47
2022-12-18T07:03:40.433Z,69.70
2022-12-18T07:06:15.586Z,69.64
2022-12-18T07:08:43.669Z,70.45
2022-12-18T07:11:12.071Z,70.65
2022-12-18T07:13:40.121Z,68.19
2022-12-18T07:16:24.763Z,68.88
2022-12-18T07:18:56.006Z,70.58
2022-12-18T07:21:25.371Z,71.06
2022-12-18T07:23:53.320Z,68.48
2022-12-18T07:26:22.598Z,67.40
2022-12-18T07:28:51.261Z,67.72
2022-12-18T07:31:22.090Z,68.31
2022-12-18T07:33:51.203Z,68.49
2022-12-18T07:36:19.694Z,69.00
2022-12-18T07:38:50.883Z,68.77
2022-12-18T07:41:19.793Z,69.52
2022-12-18T07:43:47.688Z,69.97
2022-12-18T07:46:16.678Z,70.44
2022-12-18T07:48:45.542Z,69.96
2022-12-18T07:51:17.923Z,69.85
2022-12-18T07:53:49.537Z,69.92
2022-12-18T07:56:29.962Z,70.00
2022-12-18T07:59:00.152Z,69.97
2022-12-18T08:01:28.464Z,69.31
2022-12-18T08:03:56.902Z,67.42
2022-12-18T08:06:24.957Z,67.14
2022-12-18T08:08:56.843Z,68.00
2022-12-18T08:11:26.849Z,67.99
2022-12-18T08:13:54.757Z,68.88
2022-12-18T08:16:23.008Z,68.11
2022-12-18T08:18:53.448Z,69.35
2022-12-18T08:21:24.467Z,69.42
2022-12-18T08:23:54.623Z,69.63
2022-12-18T08:26:23.370Z,68.42
2022-12-18T08:28:51.687Z,67.63
2022-12-18T08:31:20.138Z,67.96
2022-12-18T08:33:53.293Z,66.85
2022-12-18T08:36:22.214Z,67.52
2022-12-18T08:38:49.836Z,67.04
2022-12-18T08:41:19.115Z,67.28
2022-12-18T08:44:16.314Z,66.74
2022-12-18T08:46:45.004Z,66.64
2022-12-18T08:49:13.860Z,66.97
2022-12-18T08:51:41.508Z,66.68
2022-12-18T08:54:14.927Z,67.04
2022-12-18T08:56:42.795Z,67.37
2022-12-18T08:59:15.786Z,68.57
2022-12-18T09:01:47.789Z,67.62
2022-12-18T09:04:15.388Z,65.80
2022-12-18T09:06:42.958Z,66.56
2022-12-18T09:09:11.554Z,66.56
2022-12-18T09:11:39.341Z,66.92
2022-12-18T09:14:07.019Z,66.12
2022-12-18T09:16:36.137Z,65.22
2022-12-18T09:19:05.613Z,65.19
2022-12-18T09:21:37.142Z,63.97
2022-12-18T09:24:08.797Z,64.43
2022-12-18T09:26:36.897Z,64.37
2022-12-18T09:29:05.756Z,63.25
2022-12-18T09:31:34.257Z,62.01
2022-12-18T09:34:01.896Z,62.87
2022-12-18T09:36:29.680Z,65.03
2022-12-18T09:38:57.190Z,64.38
2022-12-18T09:41:40.176Z,60.42
2022-12-18T09:44:29.290Z,60.38
2022-12-18T09:46:56.820Z,59.89
2022-12-18T09:49:29.841Z,59.46
2022-12-18T09:52:10.838Z,59.27
2022-12-18T09:54:42.845Z,59.80
2022-12-18T09:57:32.986Z,61.93
2022-12-18T10:00:20.140Z,58.50
2022-12-18T10:02:49.033Z,59.67
2022-12-18T10:05:32.333Z,60.55
2022-12-18T10:08:14.843Z,58.79
2022-12-18T10:11:41.810Z,57.38
2022-12-18T10:14:36.957Z,58.72
2022-12-18T10:17:27.559Z,58.16
2022-12-18T10:20:02.223Z,57.06
2022-12-18T10:22:35.611Z,58.46
2022-12-18T10:25:15.496Z,57.87
2022-12-18T10:27:43.110Z,59.16
2022-12-18T10:30:21.956Z,58.80
2022-12-18T10:32:49.830Z,57.79
2022-12-18T10:35:27.792Z,55.12
2022-12-18T10:38:04.524Z,56.66
2022-12-18T10:40:33.843Z,55.60
2022-12-18T10:43:06.794Z,58.23
2022-12-18T10:45:34.755Z,57.01
2022-12-18T10:48:04.350Z,55.05
2022-12-18T10:51:09.761Z,58.24
2022-12-18T10:53:31.799Z,58.09
2022-12-18T10:56:04.588Z,57.39
2022-12-18T10:58:37.908Z,57.14
2022-12-18T11:01:10.496Z,55.54
2022-12-18T11:04:02.688Z,57.85
2022-12-18T11:06:33.882Z,57.34
2022-12-18T11:09:19.841Z,55.37
2022-12-18T11:11:56.326Z,55.62
2022-12-18T11:14:31.796Z,54.12
2022-12-18T11:20:00.925Z,56.34
2022-12-18T11:22:31.882Z,56.76
2022-12-18T11:27:58.015Z,57.30
2022-12-18T11:30:32.992Z,60.33
2022-12-18T11:33:23.052Z,59.89
2022-12-18T11:36:03.759Z,59.88
2022-12-18T11:38:40.355Z,58.81
2022-12-18T11:42:08.446Z,57.26
2022-12-18T11:44:54.485Z,60.14
2022-12-18T11:47:34.391Z,59.31
2022-12-18T11:50:04.358Z,59.24
2022-12-18T11:52:40.073Z,59.77
2022-12-18T11:55:36.577Z,59.84
2022-12-18T11:58:31.127Z,61.92
2022-12-18T12:01:15.453Z,61.62
2022-12-18T12:03:58.341Z,64.17
2022-12-18T12:06:50.597Z,62.61
2022-12-18T12:09:28.237Z,59.84
2022-12-18T12:12:07.835Z,61.19
2022-12-18T12:15:07.011Z,61.98
2022-12-18T12:17:51.424Z,62.61
2022-12-18T12:20:22.443Z,62.92
2022-12-18T12:23:06.927Z,61.53
2022-12-18T12:25:55.003Z,61.00
2022-12-18T12:29:09.225Z,62.16
2022-12-18T12:31:41.426Z,61.09
2022-12-18T12:34:20.282Z,60.62
2022-12-18T12:36:51.008Z,62.92
2022-12-18T12:39:24.221Z,62.35
2022-12-18T12:42:11.352Z,62.08
2022-12-18T12:44:48.999Z,61.64
2022-12-18T12:47:29.479Z,59.93
2022-12-18T12:50:00.581Z,59.48
2022-12-18T12:52:36.500Z,59.64
2022-12-18T12:55:11.617Z,59.79
2022-12-18T12:57:49.565Z,59.50
2022-12-18T13:00:20.379Z,59.41
2022-12-18T13:02:52.811Z,59.95
2022-12-18T13:05:38.973Z,57.69
2022-12-18T13:08:09.835Z,56.85
2022-12-18T13:10:41.598Z,58.54
2022-12-18T13:13:17.222Z,57.82
2022-12-18T13:16:06.690Z,60.45
2022-12-18T13:18:36.256Z,59.42
2022-12-18T13:21:18.988Z,60.33
2022-12-18T13:23:46.974Z,59.71
2022-12-18T13:26:19.123Z,58.42
2022-12-18T13:28:55.912Z,58.84
2022-12-18T13:31:42.274Z,58.98
2022-12-18T13:34:26.731Z,57.75
2022-12-18T13:37:19.007Z,59.49
2022-12-18T13:39:47.230Z,59.90
2022-12-18T13:42:34.881Z,59.19
2022-12-18T13:45:03.605Z,59.49
2022-12-18T13:47:38.485Z,59.15
2022-12-18T13:50:36.442Z,59.92
2022-12-18T13:53:05.962Z,59.63
2022-12-18T13:55:34.607Z,59.58
2022-12-18T13:58:08.202Z,60.11
2022-12-18T14:00:36.890Z,60.43
2022-12-18T14:03:22.725Z,61.11
2022-12-18T14:05:56.873Z,60.12
2022-12-18T14:08:34.024Z,60.42
2022-12-18T14:11:04.517Z,60.80
2022-12-18T14:13:43.429Z,60.85
2022-12-18T14:16:15.590Z,61.48
2022-12-18T14:18:52.758Z,62.53
2022-12-18T14:21:24.806Z,62.68
2022-12-18T14:24:20.256Z,62.69
2022-12-18T14:26:50.474Z,61.70
2022-12-18T14:29:30.911Z,63.10
2022-12-18T14:32:14.952Z,61.90
2022-12-18T14:35:09.562Z,61.77
2022-12-18T14:37:37.211Z,61.12
2022-12-18T14:40:14.201Z,61.20
2022-12-18T14:42:41.756Z,61.27
2022-12-18T14:45:43.503Z,61.42
2022-12-18T14:48:23.271Z,61.26
2022-12-18T14:51:01.247Z,61.29
2022-12-18T14:53:49.141Z,61.15
2022-12-18T14:56:25.057Z,60.83
2022-12-18T14:58:56.678Z,60.54
2022-12-18T15:01:33.186Z,61.36
2022-12-18T15:04:03.244Z,62.66
2022-12-18T15:06:40.884Z,63.66
2022-12-18T15:09:25.981Z,64.53
2022-12-18T15:12:00.230Z,64.52
2022-12-18T15:14:30.926Z,62.68
2022-12-18T15:17:00.621Z,63.71
2022-12-18T15:19:37.239Z,62.90
2022-12-18T15:22:18.573Z,64.01
2022-12-18T15:24:46.351Z,63.76
2022-12-18T15:27:39.281Z,64.10
2022-12-18T15:30:09.956Z,63.96
2022-12-18T15:32:40.557Z,63.58
2022-12-18T15:35:20.157Z,63.81
2022-12-18T15:37:48.911Z,63.75
2022-12-18T15:40:20.011Z,63.68
2022-12-18T15:43:06.753Z,64.25
2022-12-18T15:45:34.788Z,64.67
2022-12-18T15:48:21.128Z,65.04
2022-12-18T15:50:50.872Z,64.21
2022-12-18T15:53:20.154Z,63.29
2022-12-18T15:56:06.550Z,63.87
2022-12-18T15:58:34.795Z,63.01
2022-12-18T16:01:03.137Z,62.65
2022-12-18T16:03:31.613Z,61.65
2022-12-18T16:06:01.293Z,62.34
2022-12-18T16:08:30.936Z,62.85
2022-12-18T16:10:59.296Z,65.04
2022-12-18T16:13:27.128Z,65.08
2022-12-18T16:15:55.008Z,64.99
2022-12-18T16:18:23.215Z,65.09
2022-12-18T16:20:51.172Z,64.35
2022-12-18T16:23:19.020Z,63.92
2022-12-18T16:25:47.432Z,63.41
2022-12-18T16:28:16.494Z,65.81
2022-12-18T16:30:44.329Z,65.31
2022-12-18T16:33:12.565Z,64.71
2022-12-18T16:35:40.517Z,64.58
2022-12-18T16:38:08.627Z,65.03
2022-12-18T16:40:58.836Z,65.05
2022-12-18T16:43:26.661Z,65.40
2022-12-18T16:45:58.356Z,65.24
2022-12-18T16:48:26.288Z,65.05
2022-12-18T16:51:04.940Z,66.65
2022-12-18T16:53:34.295Z,67.09
2022-12-18T16:56:03.258Z,68.19
2022-12-18T16:58:33.013Z,67.84
2022-12-18T17:01:01.096Z,69.12
2022-12-18T17:03:29.156Z,65.52
2022-12-18T17:06:03.454Z,67.86
2022-12-18T17:08:32.620Z,66.94
2022-12-18T17:11:07.523Z,66.27
2022-12-18T17:13:35.798Z,65.18
2022-12-18T17:16:05.213Z,64.89
2022-12-18T17:18:34.533Z,66.15
2022-12-18T17:21:06.028Z,67.02
2022-12-18T17:23:33.803Z,66.58
2022-12-18T17:26:01.655Z,65.28
2022-12-18T17:28:30.906Z,64.76
2022-12-18T17:30:58.737Z,64.93
2022-12-18T17:33:27.241Z,64.81
2022-12-18T17:35:59.210Z,64.82
2022-12-18T17:38:27.735Z,65.01
2022-12-18T17:41:01.474Z,66.14
2022-12-18T17:43:30.081Z,66.90
2022-12-18T17:46:07.875Z,68.08
2022-12-18T17:48:37.400Z,68.07
2022-12-18T17:51:11.029Z,68.13
2022-12-18T17:53:39.616Z,68.72
2022-12-18T17:56:13.448Z,68.03
2022-12-18T17:58:42.169Z,68.25
2022-12-18T18:01:13.942Z,67.00
2022-12-18T18:03:44.640Z,67.58
2022-12-18T18:06:13.581Z,67.36
2022-12-18T18:08:41.427Z,66.76
2022-12-18T18:11:32.700Z,65.94
2022-12-18T18:14:01.779Z,67.24
2022-12-18T18:16:36.600Z,65.40
2022-12-18T18:19:08.055Z,64.48
2022-12-18T18:21:43.280Z,64.87
2022-12-18T18:24:13.819Z,64.74
2022-12-18T18:26:42.450Z,66.09
2022-12-18T18:29:16.133Z,65.76
2022-12-18T18:31:44.728Z,65.35
2022-12-18T18:34:17.988Z,65.46
2022-12-18T18:36:47.011Z,63.27
2022-12-18T18:39:15.626Z,63.46
2022-12-18T18:41:47.019Z,63.63
2022-12-18T18:44:24.815Z,64.18
2022-12-18T18:46:58.960Z,64.72
2022-12-18T18:49:28.375Z,65.30
2022-12-18T18:51:57.571Z,66.49
2022-12-18T18:54:26.522Z,66.20
2022-12-18T18:59:43.620Z,66.84
2022-12-18T19:02:14.321Z,66.58
2022-12-18T19:04:45.747Z,66.63
2022-12-18T19:07:25.599Z,66.19
2022-12-18T19:10:03.932Z,66.06
2022-12-18T19:12:53.370Z,66.05
2022-12-18T19:15:22.576Z,65.41
2022-12-18T19:17:50.865Z,65.62
2022-12-18T19:20:18.970Z,66.06
2022-12-18T19:22:54.822Z,66.32
2022-12-18T19:25:40.722Z,66.41
2022-12-18T19:28:21.647Z,65.71
2022-12-18T19:30:55.369Z,66.46
2022-12-18T19:33:42.755Z,66.20
2022-12-18T19:36:24.051Z,65.58
2022-12-18T19:38:53.785Z,65.77
2022-12-18T19:41:23.354Z,65.57
2022-12-18T19:43:53.250Z,65.83
2022-12-18T19:46:22.772Z,66.28
2022-12-18T19:48:51.296Z,66.05
2022-12-18T19:51:29.987Z,65.59
2022-12-18T19:54:01.620Z,65.88
2022-12-18T19:56:32.855Z,66.11
2022-12-18T19:59:03.813Z,65.58
2022-12-18T20:01:32.181Z,65.47
2022-12-18T20:04:01.056Z,65.30
2022-12-18T20:06:46.531Z,65.62
2022-12-18T20:09:15.056Z,64.90
2022-12-18T20:11:42.944Z,64.57
2022-12-18T20:14:12.578Z,64.79
2022-12-18T20:16:41.509Z,64.80
2022-12-18T20:19:12.111Z,64.70
2022-12-18T20:21:40.382Z,64.86
2022-12-18T20:24:09.471Z,65.18
2022-12-18T20:26:37.188Z,64.53
2022-12-18T20:29:05.192Z,63.81
2022-12-18T20:31:33.136Z,63.45
2022-12-18T20:34:02.617Z,63.99
2022-12-18T20:36:34.075Z,63.65
2022-12-18T20:39:05.388Z,63.75
2022-12-18T20:41:38.307Z,64.45
2022-12-18T20:44:21.717Z,64.06
2022-12-18T20:46:56.357Z,64.21
2022-12-18T20:49:26.147Z,63.40
2022-12-18T20:51:56.588Z,64.88
2022-12-18T20:54:26.139Z,66.42
2022-12-18T20:56:55.155Z,66.01
2022-12-18T20:59:25.200Z,65.34
2022-12-18T21:01:52.899Z,66.06
2022-12-18T21:04:22.182Z,63.82
2022-12-18T21:06:54.211Z,63.21
2022-12-18T21:09:37.680Z,64.28
2022-12-18T21:12:33.459Z,64.03
2022-12-18T21:15:05.331Z,61.67
2022-12-18T21:17:40.122Z,61.22
2022-12-18T21:20:18.102Z,61.73
2022-12-18T21:22:47.287Z,63.19
2022-12-18T21:25:15.157Z,63.73
2022-12-18T21:27:42.758Z,63.01
2022-12-18T21:30:10.937Z,63.92
2022-12-18T21:32:38.898Z,63.20
2022-12-18T21:35:06.831Z,60.79
2022-12-18T21:37:34.368Z,62.85
2022-12-18T21:40:02.340Z,63.65
2022-12-18T21:42:48.901Z,62.57
2022-12-18T21:45:16.914Z,62.11
2022-12-18T21:47:44.622Z,61.42
2022-12-18T21:50:12.928Z,60.19
2022-12-18T21:52:40.969Z,59.98
2022-12-18T21:55:10.244Z,60.45
2022-12-18T21:57:39.436Z,61.88
2022-12-18T22:00:18.761Z,60.95
2022-12-18T22:02:49.594Z,61.17
2022-12-18T22:05:36.487Z,61.11
2022-12-18T22:08:04.468Z,61.26
2022-12-18T22:10:32.109Z,61.73
2022-12-18T22:12:59.602Z,62.54
2022-12-18T22:15:27.557Z,63.33
2022-12-18T22:18:00.198Z,63.33
2022-12-18T22:20:29.948Z,63.18
2022-12-18T22:22:58.742Z,62.79
2022-12-18T22:25:28.959Z,62.97
2022-12-18T22:28:14.999Z,63.24
2022-12-18T22:30:44.028Z,62.84
2022-12-18T22:33:11.763Z,63.30
2022-12-18T22:35:39.344Z,63.25
2022-12-18T22:38:07.679Z,62.93
2022-12-18T22:40:35.259Z,63.60
2022-12-18T22:43:03.128Z,63.88
2022-12-18T22:45:30.965Z,63.58
2022-12-18T22:48:00.261Z,64.52
2022-12-18T22:50:28.006Z,64.54
2022-12-18T22:52:55.804Z,65.00
2022-12-18T22:55:23.301Z,64.36
2022-12-18T22:57:53.948Z,65.00
2022-12-18T23:00:24.598Z,65.46
2022-12-18T23:02:59.785Z,65.93
2022-12-18T23:05:31.720Z,65.06
2022-12-18T23:07:59.533Z,65.42
2022-12-18T23:10:28.737Z,64.41
2022-12-18T23:12:56.367Z,64.26
2022-12-18T23:15:27.781Z,64.31
2022-12-18T23:17:58.694Z,64.29
2022-12-18T23:20:29.278Z,64.32
2022-12-18T23:22:57.123Z,63.67
2022-12-18T23:25:24.717Z,63.52
2022-12-18T23:27:52.259Z,64.12
2022-12-18T23:30:20.233Z,63.92
2022-12-18T23:32:48.304Z,63.59
2022-12-18T23:35:17.178Z,63.59
2022-12-18T23:37:58.818Z,63.83
2022-12-18T23:40:27.757Z,63.44
2022-12-18T23:42:55.593Z,63.52
2022-12-18T23:45:23.206Z,63.33
2022-12-18T23:47:51.222Z,63.69
2022-12-18T23:50:19.360Z,63.40
2022-12-18T23:52:51.156Z,63.39
2022-12-18T23:55:19.007Z,63.43
2022-12-18T23:57:47.879Z,63.56
